Terminal Aerodrome Forecast
Issued by NWS

Home | Current Version | Previous Version | Graphics & Text | Print | Product List | Glossary On
Versions: 1 2 3 4 5 6 7 8 9 10 11 12 13 14 15 16 17 18 19 20 21 22
000
FTUS45 KGGW 200500
TAFGDV
TAF
KGDV 200523Z 2006/2106 VRB06KT P6SM OVC090
     FM200900 VRB05KT P6SM BKN070
     FM201300 23008KT P6SM VCSH BKN020
     FM201600 25011KT P6SM SCT040 SCT200
      AMD LTD TO CLD VIS AND WIND=

USA.gov is the U.S. government's official web portal to all federal, state and local government web resources and services.